Terminal Aerodrome Forecast
Issued by NWS

Current Version | Previous Version | Text Only | Print | Product List | Glossary On
Versions: 1 2 3 4 5 6 7 8 9 10 11 12 13 14 15 16 17 18 19 20 21 22 23 24 25 26 27 28
719
FTUS43 KGRB 201744
TAFAUW
TAF
KAUW 201744Z 2018/2118 10006KT 4SM -RA BR SCT003 OVC020
      TEMPO 2018/2020 2SM BR BKN003
     FM202000 11005KT 4SM BR BKN003 OVC010
     FM210400 11004KT 1 1/2SM BR OVC003
     FM211000 09006KT 1 1/2SM -DZ BR OVC003
     FM211600 11007KT 2SM -RA BR OVC004=

USA.gov is the U.S. government's official web portal to all federal, state and local government web resources and services.